Time;durP1;ratioP1;P1;durP2;ratioP2;P2;SDS_P1;SDS_P2;PMS_P1;PMS_P2;Temp;Humidity;BMP_temperature;BMP_pressure;BME280_temperature;BME280_humidity;BME280_pressure;Samples;Min_cycle;Max_cycle;Signal;HPM_P1;HPM_P2
2023/10/14 00:00:24;;;;;;;12.30;5.47;;;13.90;94.30;;;;;;7589484;19;20086;-73
2023/10/14 00:02:52;;;;;;;10.68;4.40;;;13.90;94.30;;;;;;7581582;19;20051;-74
2023/10/14 00:05:25;;;;;;;9.75;5.07;;;14.00;94.20;;;;;;7580356;19;20010;-73
2023/10/14 00:07:57;;;;;;;13.57;5.38;;;14.00;94.00;;;;;;7577049;19;20011;-71
2023/10/14 00:10:34;;;;;;;8.80;4.57;;;13.90;94.30;;;;;;7577042;19;20022;-74
2023/10/14 00:13:10;;;;;;;8.52;4.55;;;14.00;93.90;;;;;;7583400;19;20493;-73
2023/10/14 00:15:43;;;;;;;13.00;4.72;;;13.90;94.10;;;;;;7596483;19;20026;-73
2023/10/14 00:18:17;;;;;;;12.05;4.55;;;13.90;93.90;;;;;;7599777;19;20510;-73
2023/10/14 00:20:51;;;;;;;;;;;13.90;94.00;;;;;;7597423;19;20011;-71
2023/10/14 00:23:26;;;;;;;12.32;4.47;;;14.00;93.80;;;;;;7590121;19;19986;-71
2023/10/14 00:25:59;;;;;;;6.32;4.13;;;13.90;94.30;;;;;;7600671;19;20078;-74
2023/10/14 00:28:32;;;;;;;11.10;4.15;;;13.90;94.00;;;;;;7590970;19;20854;-73
2023/10/14 00:31:06;;;;;;;12.70;4.77;;;13.90;94.10;;;;;;7593722;19;20021;-73
2023/10/14 00:33:39;;;;;;;8.57;4.55;;;13.80;94.10;;;;;;7582451;19;20030;-71
2023/10/14 00:36:14;;;;;;;8.80;4.63;;;13.70;94.20;;;;;;7580666;19;20058;-72
2023/10/14 00:38:55;;;;;;;13.13;4.57;;;13.80;94.10;;;;;;7569042;19;20094;-71
2023/10/14 00:41:28;;;;;;;11.30;4.57;;;13.80;93.70;;;;;;7580147;19;20090;-71
2023/10/14 00:44:00;;;;;;;10.80;4.88;;;13.80;93.90;;;;;;7582736;19;20014;-73
2023/10/14 00:46:33;;;;;;;9.25;4.22;;;13.90;94.30;;;;;;7583551;19;20018;-71
2023/10/14 00:49:10;;;;;;;9.95;4.60;;;13.80;94.70;;;;;;7584085;19;20034;-72
2023/10/14 00:51:49;;;;;;;11.57;5.32;;;13.60;94.90;;;;;;7580055;19;20011;-74
2023/10/14 00:54:51;;;;;;;12.90;4.47;;;13.50;95.40;;;;;;7582163;19;20018;-73
2023/10/14 00:57:20;;;;;;;7.07;4.13;;;13.40;95.30;;;;;;7576316;19;20019;-73
2023/10/14 00:59:54;;;;;;;10.88;5.10;;;13.30;95.90;;;;;;7584174;19;20006;-71
2023/10/14 01:02:29;;;;;;;14.07;5.00;;;13.30;96.00;;;;;;7581059;19;20665;-71
2023/10/14 01:05:18;;;;;;;8.48;4.15;;;13.30;96.20;;;;;;7582536;19;20941;-73
2023/10/14 01:07:52;;;;;;;14.18;5.00;;;13.50;95.10;;;;;;7581957;19;20014;-73
2023/10/14 01:10:25;;;;;;;10.02;4.57;;;13.60;95.40;;;;;;7582244;19;20053;-72
2023/10/14 01:13:06;;;;;;;10.35;4.18;;;13.50;95.80;;;;;;7587557;19;20017;-73
2023/10/14 01:15:43;;;;;;;12.38;4.55;;;13.30;96.00;;;;;;7591673;19;20371;-73
2023/10/14 01:18:16;;;;;;;10.45;4.55;;;13.30;96.50;;;;;;7587653;19;21123;-74
2023/10/14 01:20:49;;;;;;;14.57;5.10;;;13.30;96.40;;;;;;7588511;19;20025;-71
2023/10/14 01:23:24;;;;;;;8.40;4.95;;;13.20;96.70;;;;;;7584947;19;20010;-73
2023/10/14 01:26:03;;;;;;;10.98;4.63;;;13.20;96.30;;;;;;7588395;19;20014;-73
2023/10/14 01:28:42;;;;;;;9.57;5.20;;;13.20;96.40;;;;;;7589293;19;20022;-73
2023/10/14 01:32:06;;;;;;;11.25;4.57;;;13.20;96.70;;;;;;7588804;19;20022;-73
2023/10/14 01:34:42;;;;;;;14.93;5.07;;;13.10;97.00;;;;;;7577931;19;20019;-71
2023/10/14 01:37:19;;;;;;;10.23;4.85;;;13.00;97.10;;;;;;7584154;19;20018;-73
2023/10/14 01:39:57;;;;;;;9.80;4.70;;;13.00;97.30;;;;;;7575545;19;20018;-74
2023/10/14 01:42:30;;;;;;;13.38;4.68;;;12.90;97.20;;;;;;7570464;19;20454;-74
2023/10/14 01:45:06;;;;;;;13.90;5.00;;;12.90;97.40;;;;;;7574330;19;20018;-73
2023/10/14 01:47:48;;;;;;;8.77;4.90;;;13.00;97.20;;;;;;7582265;19;20101;-74
2023/10/14 01:50:22;;;;;;;10.05;4.43;;;12.90;97.60;;;;;;7573978;19;20789;-73
2023/10/14 01:52:58;;;;;;;11.00;5.45;;;12.90;97.70;;;;;;7569438;19;20020;-73
2023/10/14 01:55:32;;;;;;;10.57;5.28;;;12.90;97.60;;;;;;7568535;19;20065;-73
2023/10/14 01:58:10;;;;;;;9.65;4.90;;;13.00;97.70;;;;;;7584209;19;20014;-73
2023/10/14 02:00:46;;;;;;;8.15;4.85;;;12.90;98.10;;;;;;7572087;19;20049;-73
2023/10/14 02:03:22;;;;;;;10.52;5.13;;;12.90;97.90;;;;;;7578192;19;20014;-73
2023/10/14 02:05:54;;;;;;;9.50;4.32;;;12.90;98.10;;;;;;7574322;19;20014;-73
2023/10/14 02:08:26;;;;;;;11.45;5.30;;;12.90;98.00;;;;;;7573001;19;20772;-72
2023/10/14 02:10:58;;;;;;;11.90;4.57;;;12.90;98.10;;;;;;7580802;19;20022;-73
2023/10/14 02:13:36;;;;;;;8.60;4.53;;;12.80;98.20;;;;;;7580405;19;20815;-72
2023/10/14 02:16:08;;;;;;;7.72;4.38;;;12.80;98.40;;;;;;7557508;19;20014;-72
2023/10/14 02:18:42;;;;;;;8.85;4.90;;;12.90;98.30;;;;;;7570954;19;20669;-72
2023/10/14 02:21:18;;;;;;;14.00;4.15;;;12.80;98.70;;;;;;7571795;19;20022;-72
2023/10/14 02:23:51;;;;;;;11.75;5.38;;;12.90;98.60;;;;;;7571404;19;20019;-72
2023/10/14 02:26:30;;;;;;;9.98;4.65;;;12.90;98.90;;;;;;7576997;19;20018;-72
2023/10/14 02:29:06;;;;;;;14.20;4.72;;;12.90;98.80;;;;;;7566768;19;20025;-73
2023/10/14 02:31:40;;;;;;;10.35;5.20;;;12.90;98.80;;;;;;7577396;19;20011;-73
2023/10/14 02:34:15;;;;;;;12.20;5.03;;;12.90;99.00;;;;;;7579788;19;20026;-72
2023/10/14 02:36:48;;;;;;;10.80;5.55;;;12.90;99.20;;;;;;7576453;19;20018;-73
2023/10/14 02:39:26;;;;;;;9.65;4.70;;;12.90;99.10;;;;;;7584245;19;20034;-73
2023/10/14 02:42:00;;;;;;;9.63;4.70;;;13.00;98.40;;;;;;7579835;19;20051;-73
2023/10/14 02:44:44;;;;;;;8.90;5.03;;;13.10;98.30;;;;;;7573437;19;20079;-72
2023/10/14 02:47:19;;;;;;;10.90;4.72;;;13.20;98.20;;;;;;7579648;19;20027;-72
2023/10/14 02:50:11;;;;;;;14.70;5.30;;;13.20;98.00;;;;;;7576278;19;20085;-74
2023/10/14 02:52:49;;;;;;;7.38;4.85;;;13.30;98.20;;;;;;7572551;19;20022;-72
2023/10/14 02:55:25;;;;;;;11.05;4.72;;;13.30;97.60;;;;;;7564455;19;20018;-73
2023/10/14 02:58:03;;;;;;;11.73;4.68;;;13.40;97.40;;;;;;7567918;19;20010;-73
2023/10/14 03:00:36;;;;;;;15.85;5.85;;;13.50;97.00;;;;;;7575070;19;20478;-73
2023/10/14 03:03:14;;;;;;;10.50;5.72;;;13.70;96.60;;;;;;7576861;19;20013;-73
2023/10/14 03:05:51;;;;;;;7.88;4.60;;;13.80;96.30;;;;;;7580019;19;20026;-74
2023/10/14 03:08:23;;;;;;;11.80;5.47;;;13.90;95.80;;;;;;7565736;19;20494;-74
2023/10/14 03:10:56;;;;;;;11.73;4.68;;;14.00;95.80;;;;;;7594152;19;20543;-73
2023/10/14 03:13:29;;;;;;;14.18;5.30;;;14.10;95.30;;;;;;7598429;19;20007;-73
2023/10/14 03:16:04;;;;;;;13.68;5.35;;;14.20;95.10;;;;;;7582548;19;20023;-72
2023/10/14 03:18:38;;;;;;;14.57;4.95;;;14.20;94.90;;;;;;7575607;19;20024;-73
2023/10/14 03:21:22;;;;;;;15.48;4.93;;;14.30;94.60;;;;;;7586701;19;21458;-73
2023/10/14 03:23:56;;;;;;;13.57;5.82;;;14.30;94.70;;;;;;7583519;19;20026;-73
2023/10/14 03:26:32;;;;;;;11.05;5.13;;;14.30;94.80;;;;;;7582764;19;20018;-74
2023/10/14 03:29:12;;;;;;;8.35;4.93;;;14.30;95.00;;;;;;7586782;19;20738;-74
2023/10/14 03:31:45;;;;;;;7.47;5.10;;;14.30;95.50;;;;;;7584933;19;20014;-73
2023/10/14 03:34:17;;;;;;;11.43;5.63;;;14.20;95.90;;;;;;7584031;19;20018;-73
2023/10/14 03:37:00;;;;;;;8.43;5.18;;;14.30;95.10;;;;;;7587142;19;20097;-73
2023/10/14 03:39:40;;;;;;;11.20;5.25;;;14.30;95.20;;;;;;7575147;19;20014;-73
2023/10/14 03:42:13;;;;;;;10.60;4.70;;;14.30;95.00;;;;;;7579770;19;20014;-72
2023/10/14 03:44:47;;;;;;;10.35;5.10;;;14.30;94.90;;;;;;7571287;19;20060;-72
2023/10/14 03:47:20;;;;;;;11.80;5.43;;;14.30;94.90;;;;;;7595051;19;20017;-72
2023/10/14 03:49:56;;;;;;;11.63;5.28;;;14.30;94.90;;;;;;7585931;19;20015;-72
2023/10/14 03:52:28;;;;;;;12.15;5.25;;;14.30;95.40;;;;;;7578113;19;20131;-72
2023/10/14 03:55:04;;;;;;;10.82;4.85;;;14.30;95.10;;;;;;7577377;19;20037;-71
2023/10/14 03:57:37;;;;;;;11.65;5.60;;;14.20;95.90;;;;;;7570774;19;20023;-72
2023/10/14 04:00:12;;;;;;;10.75;4.82;;;14.10;96.10;;;;;;7582335;19;20025;-73
2023/10/14 04:02:45;;;;;;;10.68;4.78;;;14.20;95.20;;;;;;7582175;19;20018;-72
2023/10/14 04:05:19;;;;;;;16.40;6.03;;;14.30;95.00;;;;;;7573514;19;20018;-74
2023/10/14 04:07:54;;;;;;;11.40;4.78;;;14.40;94.90;;;;;;7580683;19;20503;-74
2023/10/14 04:10:26;;;;;;;9.07;5.13;;;14.50;94.70;;;;;;7571864;19;20067;-74
2023/10/14 04:13:04;;;;;;;8.98;4.32;;;14.60;94.60;;;;;;7573471;19;21261;-74
2023/10/14 04:15:45;;;;;;;9.75;5.20;;;14.80;94.20;;;;;;7579304;19;20149;-73
2023/10/14 04:18:24;;;;;;;10.93;5.15;;;15.20;93.70;;;;;;7570854;19;20041;-73
2023/10/14 04:21:13;;;;;;;9.75;4.65;;;15.40;93.30;;;;;;7577073;19;20048;-73
2023/10/14 04:24:09;;;;;;;10.48;5.25;;;15.60;93.20;;;;;;7567445;19;20015;-73
2023/10/14 04:26:41;;;;;;;12.95;4.72;;;15.70;93.10;;;;;;7576489;19;20030;-73
2023/10/14 04:29:34;;;;;;;13.32;5.05;;;15.90;92.50;;;;;;7577359;19;20658;-73
2023/10/14 04:32:16;;;;;;;20.48;5.35;;;16.20;92.20;;;;;;7575375;19;20451;-73
2023/10/14 04:34:49;;;;;;;9.95;4.78;;;16.30;92.10;;;;;;7575830;19;20022;-73
2023/10/14 04:37:21;;;;;;;13.63;4.57;;;16.30;92.30;;;;;;7571153;19;20025;-73
2023/10/14 04:40:12;;;;;;;10.77;5.63;;;16.40;92.20;;;;;;7572937;19;21001;-73
2023/10/14 04:42:48;;;;;;;10.88;4.70;;;16.60;92.30;;;;;;7579640;19;20528;-74
2023/10/14 04:45:25;;;;;;;17.15;5.60;;;16.90;92.30;;;;;;7576184;19;20022;-71
2023/10/14 04:47:58;;;;;;;11.68;5.32;;;17.20;91.90;;;;;;7581033;19;20374;-74
2023/10/14 04:50:33;;;;;;;8.50;4.60;;;17.30;91.40;;;;;;7581220;19;20019;-74
2023/10/14 04:53:06;;;;;;;14.60;5.15;;;17.60;91.70;;;;;;7562254;19;21316;-71
2023/10/14 04:55:43;;;;;;;10.65;4.63;;;17.70;91.60;;;;;;7570425;19;20011;-73
2023/10/14 04:58:23;;;;;;;8.98;4.70;;;17.80;91.50;;;;;;7576039;19;20038;-74
2023/10/14 05:01:00;;;;;;;8.77;5.22;;;17.80;91.90;;;;;;7573231;19;20017;-73
2023/10/14 05:03:33;;;;;;;12.63;5.43;;;17.90;92.50;;;;;;7574308;19;20016;-73
2023/10/14 05:08:46;;;;;;;14.80;5.75;;;18.30;92.70;;;;;;7570952;19;20392;-72
2023/10/14 05:11:19;;;;;;;15.80;5.50;;;18.50;92.40;;;;;;7586172;19;20022;-72
2023/10/14 05:16:55;;;;;;;12.10;5.38;;;18.60;92.40;;;;;;7580310;19;20262;-72
2023/10/14 05:19:35;;;;;;;12.48;6.00;;;18.70;92.50;;;;;;7579897;19;20026;-72
2023/10/14 05:22:24;;;;;;;10.43;5.47;;;18.80;92.20;;;;;;7579535;19;21406;-72
2023/10/14 05:25:03;;;;;;;10.88;5.88;;;18.90;91.50;;;;;;7574476;19;20025;-74
2023/10/14 05:27:45;;;;;;;10.90;5.22;;;18.80;91.40;;;;;;7574753;19;20060;-72
2023/10/14 05:30:21;;;;;;;16.45;6.00;;;18.70;91.60;;;;;;7582466;19;20134;-72
2023/10/14 05:32:54;;;;;;;10.65;5.53;;;18.60;91.70;;;;;;7580562;19;20018;-72
2023/10/14 05:35:28;;;;;;;10.07;5.78;;;18.60;91.70;;;;;;7577467;19;21181;-72
2023/10/14 05:38:01;;;;;;;13.13;6.72;;;18.60;91.90;;;;;;7576665;19;20014;-71
2023/10/14 05:40:33;;;;;;;15.03;5.70;;;18.70;91.90;;;;;;7584734;19;20026;-72
2023/10/14 05:43:06;;;;;;;12.40;6.10;;;18.60;91.60;;;;;;7571949;19;20283;-72
2023/10/14 05:45:39;;;;;;;15.25;5.80;;;18.50;91.70;;;;;;7572943;19;20014;-71
2023/10/14 05:48:12;;;;;;;17.90;5.78;;;18.60;91.80;;;;;;7575620;19;20028;-72
2023/10/14 05:50:45;;;;;;;;;;;18.60;92.30;;;;;;7581585;19;20484;-73
2023/10/14 05:53:19;;;;;;;13.23;6.10;;;18.70;92.70;;;;;;7573246;19;19923;-72
2023/10/14 05:56:09;;;;;;;12.55;5.68;;;18.70;92.90;;;;;;7564574;19;21464;-72
2023/10/14 05:58:42;;;;;;;18.75;6.13;;;18.80;92.90;;;;;;7534779;19;20018;-72
2023/10/14 06:01:16;;;;;;;11.73;7.00;;;19.00;92.90;;;;;;7577308;19;20041;-72
2023/10/14 06:03:49;;;;;;;15.48;6.50;;;19.20;92.70;;;;;;7564490;19;20051;-72
2023/10/14 06:06:22;;;;;;;20.50;6.75;;;19.30;93.00;;;;;;7575271;19;20695;-73
2023/10/14 06:08:55;;;;;;;18.60;6.93;;;19.20;92.80;;;;;;7562809;19;20010;-72
2023/10/14 06:11:27;;;;;;;14.48;7.20;;;19.30;93.00;;;;;;7568373;19;20901;-73
2023/10/14 06:14:02;;;;;;;11.75;6.15;;;19.20;93.10;;;;;;7563827;19;20018;-72
2023/10/14 06:16:35;;;;;;;12.57;6.57;;;19.20;93.40;;;;;;7555172;19;20014;-74
2023/10/14 06:19:12;;;;;;;11.27;6.00;;;19.20;93.20;;;;;;7559667;19;20017;-72
2023/10/14 06:21:45;;;;;;;11.25;6.60;;;19.20;93.30;;;;;;7568119;19;20755;-71
2023/10/14 06:24:17;;;;;;;12.05;6.22;;;19.30;93.10;;;;;;7557237;19;20090;-73
2023/10/14 06:26:58;;;;;;;15.17;7.20;;;19.30;92.80;;;;;;7555762;19;20042;-73
2023/10/14 06:29:31;;;;;;;20.77;6.00;;;19.30;93.00;;;;;;7575013;19;20014;-71
2023/10/14 06:32:04;;;;;;;13.38;6.45;;;19.30;93.00;;;;;;7572630;19;20022;-72
2023/10/14 06:34:59;;;;;;;11.68;6.13;;;19.40;92.90;;;;;;7580641;19;20026;-74
2023/10/14 06:37:41;;;;;;;16.67;6.90;;;19.40;92.90;;;;;;7587168;19;20014;-74
2023/10/14 06:40:17;;;;;;;9.82;6.13;;;19.30;93.00;;;;;;7589203;19;20033;-71
2023/10/14 06:42:53;;;;;;;18.40;7.47;;;19.40;93.10;;;;;;7587939;19;20019;-73
2023/10/14 06:45:31;;;;;;;17.17;6.75;;;19.40;93.20;;;;;;7593406;19;20010;-74
2023/10/14 06:48:09;;;;;;;17.15;7.00;;;19.50;93.30;;;;;;7576769;19;20018;-72
2023/10/14 06:50:42;;;;;;;15.65;6.70;;;19.50;93.50;;;;;;7570475;19;20343;-73
2023/10/14 06:53:15;;;;;;;19.58;7.47;;;19.50;93.60;;;;;;7593212;19;20015;-72
2023/10/14 06:55:50;;;;;;;22.67;6.80;;;19.50;93.60;;;;;;7590136;19;20015;-72
2023/10/14 06:58:22;;;;;;;17.63;6.75;;;19.50;93.70;;;;;;7583559;19;20631;-73
2023/10/14 07:00:58;;;;;;;19.08;7.18;;;19.50;93.70;;;;;;7567496;19;20006;-73
2023/10/14 07:03:33;;;;;;;18.67;6.53;;;19.60;93.70;;;;;;7586810;19;20029;-73
2023/10/14 07:06:06;;;;;;;14.70;6.20;;;19.70;93.70;;;;;;7572154;19;20382;-73
2023/10/14 07:08:39;;;;;;;12.00;5.50;;;19.70;93.70;;;;;;7581148;19;20018;-71
2023/10/14 07:11:12;;;;;;;13.85;5.93;;;19.70;93.80;;;;;;7587256;19;20010;-72
2023/10/14 07:13:46;;;;;;;15.13;6.43;;;19.70;93.90;;;;;;7586417;19;20010;-72
2023/10/14 07:16:18;;;;;;;;;;;19.70;93.90;;;;;;7586185;19;20057;-71
2023/10/14 07:18:51;;;;;;;8.68;5.60;;;19.80;94.00;;;;;;7542594;19;20005;-72
2023/10/14 07:21:24;;;;;;;12.52;6.18;;;19.70;94.10;;;;;;7575264;19;20630;-72
2023/10/14 07:23:58;;;;;;;13.45;6.43;;;19.70;94.50;;;;;;7576786;19;21525;-72
2023/10/14 07:26:36;;;;;;;14.70;6.22;;;19.70;94.80;;;;;;7587694;19;20380;-72
2023/10/14 07:29:08;;;;;;;11.20;6.10;;;19.60;94.80;;;;;;7580929;19;20052;-73
2023/10/14 07:31:41;;;;;;;12.57;5.95;;;19.60;94.80;;;;;;7587165;19;20053;-72
2023/10/14 07:34:16;;;;;;;16.95;7.05;;;19.60;95.10;;;;;;7578968;19;20014;-73
2023/10/14 07:36:51;;;;;;;12.82;6.18;;;19.50;95.10;;;;;;7590505;19;20053;-72
2023/10/14 07:39:27;;;;;;;17.25;6.55;;;19.50;95.10;;;;;;7585577;19;20120;-72
2023/10/14 07:42:09;;;;;;;15.32;6.55;;;19.50;95.40;;;;;;7580944;19;20018;-71
2023/10/14 07:44:41;;;;;;;12.45;6.57;;;19.60;95.40;;;;;;7583698;19;20042;-71
2023/10/14 07:47:14;;;;;;;15.45;7.05;;;19.70;95.70;;;;;;7567542;19;20655;-72
2023/10/14 07:49:46;;;;;;;12.30;5.47;;;19.70;95.40;;;;;;7552761;19;20017;-72
2023/10/14 07:52:20;;;;;;;11.88;6.30;;;19.60;95.50;;;;;;7574299;19;20298;-71
2023/10/14 07:54:53;;;;;;;10.27;5.95;;;19.60;95.40;;;;;;7567097;19;20964;-72
2023/10/14 07:57:25;;;;;;;15.18;6.47;;;19.50;95.50;;;;;;7573656;19;20379;-72
2023/10/14 08:00:09;;;;;;;11.85;5.85;;;19.50;95.60;;;;;;7572353;19;20073;-73
2023/10/14 08:02:44;;;;;;;11.27;6.03;;;19.50;95.60;;;;;;7545134;19;20011;-72
2023/10/14 08:05:16;;;;;;;10.32;5.90;;;19.50;95.60;;;;;;7545442;19;20017;-72
2023/10/14 08:07:48;;;;;;;10.00;5.70;;;19.50;95.60;;;;;;7576728;19;20016;-72
2023/10/14 08:10:21;;;;;;;12.93;5.50;;;19.50;95.70;;;;;;7560583;19;20010;-72
2023/10/14 08:12:53;;;;;;;11.47;5.57;;;19.50;95.60;;;;;;7594911;19;20827;-72
2023/10/14 08:15:29;;;;;;;11.93;5.57;;;19.50;95.50;;;;;;7593178;19;20025;-73
2023/10/14 08:18:07;;;;;;;9.73;4.85;;;19.50;95.50;;;;;;7590220;19;20018;-71
2023/10/14 08:20:43;;;;;;;8.15;4.80;;;19.50;95.20;;;;;;7562548;19;20650;-73
2023/10/14 08:23:17;;;;;;;8.07;4.50;;;19.60;95.50;;;;;;7576620;19;20511;-71
2023/10/14 08:25:56;;;;;;;9.90;5.07;;;19.60;95.00;;;;;;7586907;19;20773;-73
2023/10/14 08:28:32;;;;;;;6.90;4.13;;;19.60;95.20;;;;;;7586704;19;21123;-71
2023/10/14 08:31:07;;;;;;;12.88;4.57;;;19.60;95.10;;;;;;7577342;19;20836;-73
2023/10/14 08:33:40;;;;;;;10.98;4.13;;;19.60;94.90;;;;;;7586514;19;20025;-71
2023/10/14 08:36:18;;;;;;;7.10;4.07;;;19.50;94.40;;;;;;7556593;19;20029;-73
2023/10/14 08:38:50;;;;;;;12.13;4.18;;;19.50;94.60;;;;;;7562710;19;20574;-73
2023/10/14 08:41:22;;;;;;;11.93;4.35;;;19.50;94.60;;;;;;7584621;19;20483;-73
2023/10/14 08:43:58;;;;;;;9.18;4.78;;;19.40;94.50;;;;;;7581031;19;20618;-73
2023/10/14 08:46:35;;;;;;;12.88;5.60;;;19.40;94.80;;;;;;7574207;19;20022;-73
2023/10/14 08:49:12;;;;;;;10.10;5.32;;;19.40;95.10;;;;;;7582974;19;20014;-71
2023/10/14 08:51:45;;;;;;;8.88;4.55;;;19.30;95.30;;;;;;7571522;19;21897;-73
2023/10/14 08:54:25;;;;;;;12.45;5.65;;;19.40;95.70;;;;;;7577399;19;21043;-73
2023/10/14 08:56:59;;;;;;;15.65;5.80;;;19.30;95.90;;;;;;7574478;19;21244;-73
2023/10/14 08:59:31;;;;;;;15.98;6.43;;;19.30;95.60;;;;;;7569579;19;20531;-72
2023/10/14 09:02:03;;;;;;;15.48;5.68;;;19.30;95.50;;;;;;7548298;19;20022;-73
2023/10/14 09:04:36;;;;;;;11.35;6.20;;;19.30;95.60;;;;;;7593534;19;20011;-72
2023/10/14 09:07:14;;;;;;;11.53;5.80;;;19.20;95.40;;;;;;7587343;19;20022;-71
2023/10/14 09:09:48;;;;;;;16.35;6.28;;;19.30;95.60;;;;;;7592466;19;20350;-72
2023/10/14 09:12:20;;;;;;;10.60;5.18;;;19.20;95.50;;;;;;7597152;19;20433;-73
2023/10/14 09:14:53;;;;;;;13.30;5.40;;;19.20;95.30;;;;;;7591324;19;20493;-75
2023/10/14 09:17:29;;;;;;;13.20;5.30;;;19.30;95.00;;;;;;7582553;19;20386;-74
2023/10/14 09:20:01;;;;;;;16.33;6.10;;;19.20;95.10;;;;;;7563998;19;20003;-73
2023/10/14 09:22:34;;;;;;;19.65;5.88;;;19.20;94.60;;;;;;7587891;19;20040;-72
2023/10/14 09:25:06;;;;;;;10.65;5.07;;;19.30;94.10;;;;;;7582181;19;20030;-74
2023/10/14 09:27:48;;;;;;;9.32;5.85;;;19.20;93.90;;;;;;7586424;19;20724;-73
2023/10/14 09:30:23;;;;;;;11.23;5.20;;;19.30;93.90;;;;;;7578420;19;21416;-73
2023/10/14 09:32:56;;;;;;;9.63;5.07;;;19.30;93.70;;;;;;7570324;19;20014;-73
2023/10/14 09:35:30;;;;;;;10.40;5.35;;;19.30;93.50;;;;;;7580932;19;20078;-72
2023/10/14 09:38:04;;;;;;;11.95;5.22;;;19.40;93.40;;;;;;7567605;19;20014;-74
2023/10/14 09:40:36;;;;;;;;;;;19.50;93.30;;;;;;7576473;19;20010;-71
2023/10/14 09:43:12;;;;;;;13.85;5.40;;;19.50;93.40;;;;;;7577423;19;24629;-73
2023/10/14 09:45:47;;;;;;;8.73;4.90;;;19.50;93.10;;;;;;7580036;19;20624;-73
2023/10/14 09:48:27;;;;;;;9.30;4.88;;;19.50;92.90;;;;;;7577009;19;20014;-72
2023/10/14 09:51:02;;;;;;;10.15;5.30;;;19.50;93.00;;;;;;7590687;19;20014;-72
2023/10/14 09:53:36;;;;;;;10.73;5.45;;;19.50;93.20;;;;;;7573490;19;20078;-75
2023/10/14 09:56:10;;;;;;;8.40;5.00;;;19.30;93.50;;;;;;7573889;19;20014;-73
2023/10/14 09:58:46;;;;;;;13.13;5.47;;;19.40;93.70;;;;;;7570026;19;20011;-72
2023/10/14 10:01:19;;;;;;;9.88;5.50;;;19.40;93.70;;;;;;7580781;19;20047;-72
2023/10/14 10:04:08;;;;;;;10.95;6.07;;;19.30;93.90;;;;;;7573330;19;21381;-72
2023/10/14 10:06:52;;;;;;;14.98;6.05;;;19.30;94.00;;;;;;7595640;19;20502;-73
2023/10/14 10:10:02;;;;;;;15.38;6.32;;;19.30;94.20;;;;;;7561403;19;20062;-72
2023/10/14 10:12:35;;;;;;;12.65;5.75;;;19.20;94.30;;;;;;7557821;19;20014;-73
2023/10/14 10:15:08;;;;;;;12.63;5.73;;;19.20;94.60;;;;;;7576699;19;20377;-74
2023/10/14 10:17:40;;;;;;;12.55;5.95;;;19.20;94.70;;;;;;7582797;19;20015;-72
2023/10/14 10:20:16;;;;;;;11.80;5.53;;;19.10;94.90;;;;;;7590096;19;21647;-75
2023/10/14 10:22:51;;;;;;;16.33;6.22;;;19.20;94.90;;;;;;7594856;19;20038;-74
2023/10/14 10:25:49;;;;;;;11.20;6.80;;;19.00;94.70;;;;;;7589613;19;20010;-73
2023/10/14 10:28:27;;;;;;;12.23;5.95;;;19.00;95.20;;;;;;7587214;19;20018;-74
2023/10/14 10:31:13;;;;;;;15.50;5.68;;;19.00;94.90;;;;;;7569076;19;20425;-71
2023/10/14 10:34:03;;;;;;;10.63;5.47;;;19.10;95.10;;;;;;7562858;19;20095;-73
2023/10/14 10:36:37;;;;;;;10.52;6.00;;;18.90;95.00;;;;;;7594268;19;20881;-73
2023/10/14 10:39:20;;;;;;;10.82;5.72;;;19.00;95.20;;;;;;7575387;19;20077;-75
2023/10/14 10:41:54;;;;;;;13.90;6.13;;;19.00;95.20;;;;;;7583497;19;20018;-72
2023/10/14 10:44:33;;;;;;;9.38;5.32;;;19.00;95.30;;;;;;7594175;19;20582;-74
2023/10/14 10:47:09;;;;;;;11.10;4.85;;;19.00;95.30;;;;;;7592672;19;20010;-74
2023/10/14 10:49:59;;;;;;;14.02;6.05;;;18.90;95.00;;;;;;7570645;19;20017;-74
2023/10/14 10:52:36;;;;;;;12.20;5.57;;;19.00;95.20;;;;;;7613620;19;20070;-75
2023/10/14 10:55:10;;;;;;;11.18;5.65;;;19.00;95.20;;;;;;7605401;19;20018;-75
2023/10/14 10:57:44;;;;;;;9.55;4.85;;;19.10;95.00;;;;;;7605468;19;20448;-75
2023/10/14 11:00:17;;;;;;;11.85;5.68;;;19.20;95.00;;;;;;7611579;19;20014;-74
2023/10/14 11:02:54;;;;;;;9.23;5.55;;;19.30;94.90;;;;;;7615055;19;20014;-75
2023/10/14 11:05:28;;;;;;;10.70;5.45;;;19.30;94.80;;;;;;7610348;19;20018;-74
2023/10/14 11:08:04;;;;;;;10.55;4.80;;;19.50;94.90;;;;;;7616362;19;20019;-74
2023/10/14 11:10:38;;;;;;;11.07;5.22;;;19.60;94.10;;;;;;7617603;19;20018;-73
2023/10/14 11:13:12;;;;;;;7.65;4.65;;;19.70;94.00;;;;;;7610002;19;20118;-77
2023/10/14 11:15:46;;;;;;;11.43;5.28;;;20.00;93.80;;;;;;7586755;19;20021;-75
2023/10/14 11:18:19;;;;;;;11.95;4.75;;;20.40;93.30;;;;;;7586841;19;22848;-75
2023/10/14 11:21:11;;;;;;;10.10;5.07;;;20.60;93.00;;;;;;7590690;19;20089;-74
2023/10/14 11:23:44;;;;;;;11.23;5.07;;;20.40;93.10;;;;;;7588386;19;20014;-73
2023/10/14 11:26:17;;;;;;;12.13;4.45;;;20.60;92.90;;;;;;7592625;19;21137;-74
2023/10/14 11:28:50;;;;;;;;;;;20.50;92.40;;;;;;7585997;19;20346;-73
2023/10/14 11:31:24;;;;;;;8.02;4.43;;;20.50;93.20;;;;;;7581690;19;19944;-72
2023/10/14 11:34:03;;;;;;;8.20;4.28;;;20.50;93.00;;;;;;7577324;19;20025;-75
2023/10/14 11:36:41;;;;;;;9.85;4.80;;;20.70;92.90;;;;;;7571604;19;20029;-72
2023/10/14 11:39:18;;;;;;;8.80;3.58;;;21.10;92.50;;;;;;7564229;19;20022;-73
2023/10/14 11:41:51;;;;;;;10.52;4.10;;;23.10;89.40;;;;;;7583832;19;20016;-73
2023/10/14 11:44:24;;;;;;;9.23;3.85;;;24.40;85.10;;;;;;7573911;19;20383;-73
2023/10/14 11:46:59;;;;;;;10.15;4.07;;;25.80;80.70;;;;;;7587721;19;20802;-74
2023/10/14 11:49:34;;;;;;;5.80;3.47;;;25.00;81.60;;;;;;7579935;19;20010;-75
2023/10/14 11:52:09;;;;;;;16.23;4.00;;;23.80;83.10;;;;;;7562354;19;20010;-74
2023/10/14 11:54:42;;;;;;;5.70;3.50;;;22.60;86.60;;;;;;7583460;19;20015;-74
2023/10/14 11:57:15;;;;;;;5.93;3.33;;;21.90;89.00;;;;;;7593522;19;20022;-73
2023/10/14 11:59:48;;;;;;;7.07;3.67;;;21.70;90.30;;;;;;7582581;19;20120;-73
2023/10/14 12:02:23;;;;;;;8.02;3.70;;;21.50;90.10;;;;;;7566719;19;20866;-74
2023/10/14 12:04:55;;;;;;;5.68;3.25;;;21.40;90.20;;;;;;7566452;19;20029;-74
2023/10/14 12:07:27;;;;;;;6.68;3.42;;;21.10;90.70;;;;;;7577729;19;20078;-74
2023/10/14 12:10:00;;;;;;;7.35;3.20;;;21.20;90.60;;;;;;7600249;19;20040;-75
2023/10/14 12:12:33;;;;;;;5.00;3.40;;;21.00;90.70;;;;;;7587915;19;20011;-73
2023/10/14 12:15:06;;;;;;;7.77;3.70;;;21.00;91.00;;;;;;7569667;19;20330;-73
2023/10/14 12:17:39;;;;;;;;;;;21.00;90.90;;;;;;7573842;19;20097;-73
2023/10/14 12:20:11;;;;;;;7.10;3.28;;;21.30;91.10;;;;;;7594807;19;19963;-72
2023/10/14 12:22:47;;;;;;;9.65;3.10;;;21.70;90.90;;;;;;7583532;19;20017;-72
2023/10/14 12:25:20;;;;;;;8.85;3.83;;;21.90;90.30;;;;;;7584168;19;20018;-72
2023/10/14 12:27:52;;;;;;;5.47;3.40;;;22.00;90.40;;;;;;7570969;19;20709;-74
2023/10/14 12:30:35;;;;;;;9.10;3.53;;;22.10;89.60;;;;;;7564414;19;21204;-73
2023/10/14 12:33:08;;;;;;;7.70;3.78;;;21.90;89.80;;;;;;7572700;19;20465;-73
2023/10/14 12:35:40;;;;;;;9.20;3.80;;;21.90;90.00;;;;;;7583019;19;20026;-72
2023/10/14 12:38:15;;;;;;;8.35;3.40;;;21.80;89.60;;;;;;7568714;19;20524;-72
2023/10/14 12:40:48;;;;;;;8.10;4.00;;;21.90;89.70;;;;;;7566915;19;20953;-73
2023/10/14 12:43:33;;;;;;;7.88;3.60;;;22.00;88.50;;;;;;7572653;19;20605;-74
2023/10/14 12:48:51;;;;;;;9.30;4.13;;;21.90;89.30;;;;;;7557652;19;20018;-73
2023/10/14 12:51:30;;;;;;;8.55;3.88;;;21.90;89.30;;;;;;7565080;19;20041;-73
2023/10/14 12:54:08;;;;;;;7.15;3.63;;;21.60;89.50;;;;;;7529096;19;20022;-73
2023/10/14 12:56:41;;;;;;;7.40;3.50;;;21.20;90.20;;;;;;7573502;19;20030;-72
2023/10/14 12:59:13;;;;;;;8.02;3.58;;;20.90;90.80;;;;;;7563695;19;21143;-71
2023/10/14 13:01:46;;;;;;;7.10;3.38;;;20.80;91.10;;;;;;7566662;19;21031;-72
2023/10/14 13:04:21;;;;;;;8.15;3.58;;;20.70;91.90;;;;;;7578735;19;20018;-73
2023/10/14 13:06:54;;;;;;;13.38;4.18;;;20.60;91.60;;;;;;7560795;19;20029;-72
2023/10/14 13:09:27;;;;;;;8.93;4.20;;;20.50;91.70;;;;;;7573210;19;20632;-73
2023/10/14 13:12:28;;;;;;;9.70;3.78;;;20.50;92.00;;;;;;7579924;19;20134;-71
2023/10/14 13:14:57;;;;;;;;;;;20.40;91.90;;;;;;7556845;19;20014;-71
2023/10/14 13:17:35;;;;;;;7.03;3.97;;;20.30;92.20;;;;;;7559743;19;20014;-72
2023/10/14 13:20:08;;;;;;;9.05;3.78;;;20.40;92.20;;;;;;7564811;19;20025;-73
2023/10/14 13:22:41;;;;;;;;;;;20.40;92.30;;;;;;7587748;19;20018;-74
2023/10/14 13:25:17;;;;;;;7.25;3.58;;;20.40;92.00;;;;;;7572255;19;20336;-73
2023/10/14 13:27:51;;;;;;;9.88;3.85;;;20.30;92.00;;;;;;7571358;19;20007;-74
2023/10/14 13:30:24;;;;;;;7.22;3.65;;;20.30;92.00;;;;;;7552147;19;20014;-75
2023/10/14 13:32:58;;;;;;;6.20;3.03;;;20.30;91.80;;;;;;7554413;19;20022;-71
2023/10/14 13:35:31;;;;;;;9.00;3.53;;;20.20;92.20;;;;;;7543409;19;20011;-74